Time;durP1;ratioP1;P1;durP2;ratioP2;P2;SDS_P1;SDS_P2;PMS_P1;PMS_P2;Temp;Humidity;BMP_temperature;BMP_pressure;BME280_temperature;BME280_humidity;BME280_pressure;Samples;Min_cycle;Max_cycle;Signal;HPM_P1;HPM_P2
2021/04/20 00:01:22;;;;;;;16.30;7.53;;;6.30;66.40;;;;;;4978531;28;20100;-65
2021/04/20 00:03:48;;;;;;;16.37;7.73;;;6.30;66.20;;;;;;5012175;28;20038;-65
2021/04/20 00:06:15;;;;;;;18.13;7.47;;;6.20;66.40;;;;;;5015196;28;20202;-65
2021/04/20 00:08:40;;;;;;;13.63;7.07;;;6.20;66.60;;;;;;4998397;28;20421;-65
2021/04/20 00:11:06;;;;;;;15.77;7.63;;;6.20;67.00;;;;;;4981946;28;20087;-68
2021/04/20 00:13:33;;;;;;;14.87;7.60;;;6.20;67.00;;;;;;5015302;28;20045;-65
2021/04/20 00:15:59;;;;;;;17.47;8.23;;;6.10;67.20;;;;;;4998431;28;20406;-65
2021/04/20 00:18:25;;;;;;;14.30;6.83;;;6.10;67.30;;;;;;4980725;28;20456;-62
2021/04/20 00:20:51;;;;;;;15.60;7.67;;;6.10;67.40;;;;;;5017859;28;20046;-67
2021/04/20 00:23:17;;;;;;;17.13;8.53;;;6.00;67.50;;;;;;4999455;28;20049;-62
2021/04/20 00:25:42;;;;;;;16.17;7.57;;;6.00;67.80;;;;;;4998071;28;20409;-62
2021/04/20 00:28:08;;;;;;;20.67;8.00;;;6.00;68.00;;;;;;5014268;28;20041;-62
2021/04/20 00:30:34;;;;;;;19.97;8.57;;;5.90;68.20;;;;;;5015599;28;20038;-62
2021/04/20 00:33:00;;;;;;;17.23;8.40;;;5.90;68.40;;;;;;5015647;28;20033;-62
2021/04/20 00:35:26;;;;;;;14.93;7.73;;;5.90;68.70;;;;;;5015419;28;20494;-62
2021/04/20 00:37:51;;;;;;;16.10;8.40;;;5.90;68.90;;;;;;4997489;28;20037;-62
2021/04/20 00:40:18;;;;;;;18.23;8.60;;;5.90;69.00;;;;;;5014626;28;20434;-62
2021/04/20 00:42:52;;;;;;;19.97;8.10;;;5.80;69.00;;;;;;5014928;28;20457;-62
2021/04/20 00:45:23;;;;;;;20.00;7.87;;;5.80;69.10;;;;;;4999892;28;20057;-61
2021/04/20 00:47:49;;;;;;;18.00;8.50;;;5.70;69.30;;;;;;4997420;28;20072;-63
2021/04/20 00:50:17;;;;;;;17.50;8.53;;;5.70;69.50;;;;;;5014670;28;20121;-62
2021/04/20 00:52:43;;;;;;;16.63;8.07;;;5.60;69.60;;;;;;4981483;28;20053;-65
2021/04/20 00:55:10;;;;;;;20.53;8.23;;;5.60;69.70;;;;;;5015037;28;20030;-62
2021/04/20 00:57:37;;;;;;;16.43;7.70;;;5.60;69.90;;;;;;5014862;28;20406;-64
2021/04/20 01:00:12;;;;;;;16.13;8.37;;;5.50;70.10;;;;;;5015407;28;20046;-62
2021/04/20 01:02:38;;;;;;;18.87;7.77;;;5.50;70.30;;;;;;5014795;28;20044;-62
2021/04/20 01:05:13;;;;;;;21.33;9.33;;;5.50;70.40;;;;;;5015427;28;20453;-62
2021/04/20 01:07:40;;;;;;;18.03;8.50;;;5.40;70.50;;;;;;5013974;28;20053;-62
2021/04/20 01:10:08;;;;;;;17.43;8.63;;;5.40;70.50;;;;;;5015051;28;20037;-61
2021/04/20 01:12:35;;;;;;;19.17;9.23;;;5.40;70.70;;;;;;5015003;28;20062;-65
2021/04/20 01:15:02;;;;;;;18.93;8.87;;;5.30;71.00;;;;;;4997124;28;20125;-62
2021/04/20 01:17:28;;;;;;;20.50;10.00;;;5.30;71.10;;;;;;4996537;28;20030;-62
2021/04/20 01:19:57;;;;;;;16.80;8.47;;;5.30;71.30;;;;;;5013600;28;20030;-62
2021/04/20 01:22:26;;;;;;;16.70;8.33;;;5.20;71.30;;;;;;4996208;28;20427;-62
2021/04/20 01:24:52;;;;;;;16.27;7.90;;;5.20;71.60;;;;;;5013308;28;20048;-62
2021/04/20 01:27:18;;;;;;;18.90;8.37;;;5.10;71.70;;;;;;4995558;28;20346;-62
2021/04/20 01:29:44;;;;;;;17.90;8.27;;;5.10;71.90;;;;;;4996114;28;20567;-62
2021/04/20 01:32:10;;;;;;;18.40;8.73;;;5.00;72.00;;;;;;5013177;28;20030;-61
2021/04/20 01:34:35;;;;;;;17.07;8.93;;;5.00;72.10;;;;;;5013332;28;20498;-62
2021/04/20 01:37:01;;;;;;;18.97;9.43;;;5.00;72.30;;;;;;4994840;28;20041;-62
2021/04/20 01:39:27;;;;;;;19.77;8.83;;;5.00;72.50;;;;;;5013168;28;20038;-65
2021/04/20 01:41:52;;;;;;;23.10;9.53;;;4.90;72.50;;;;;;4995775;28;20037;-64
2021/04/20 01:44:18;;;;;;;20.80;9.07;;;4.90;72.70;;;;;;4995375;28;20042;-63
2021/04/20 01:46:44;;;;;;;16.47;9.13;;;4.90;72.80;;;;;;5013483;28;20080;-64
2021/04/20 01:49:10;;;;;;;15.83;8.43;;;4.80;72.90;;;;;;4994692;28;20030;-64
2021/04/20 01:51:36;;;;;;;19.10;9.30;;;4.80;73.10;;;;;;5013001;28;20038;-64
2021/04/20 01:54:02;;;;;;;23.97;9.27;;;4.70;73.20;;;;;;4995582;28;20466;-64
2021/04/20 01:56:29;;;;;;;21.07;9.43;;;4.70;73.30;;;;;;5012485;28;20450;-65
2021/04/20 01:58:55;;;;;;;21.60;10.40;;;4.70;73.50;;;;;;4995097;28;20026;-64
2021/04/20 02:01:24;;;;;;;17.83;9.33;;;4.70;73.80;;;;;;4995249;28;20042;-64
2021/04/20 02:03:50;;;;;;;23.03;9.60;;;4.60;73.90;;;;;;4995212;28;20040;-64
2021/04/20 02:06:20;;;;;;;18.47;9.47;;;4.60;74.10;;;;;;5012805;28;20038;-64
2021/04/20 02:08:49;;;;;;;19.33;9.57;;;4.60;74.10;;;;;;5011354;28;20050;-64
2021/04/20 02:11:17;;;;;;;22.33;10.00;;;4.50;74.20;;;;;;4995145;28;20042;-64
2021/04/20 02:13:44;;;;;;;20.13;9.50;;;4.50;74.50;;;;;;5012261;28;20128;-63
2021/04/20 02:16:10;;;;;;;19.80;9.53;;;4.50;74.60;;;;;;5012844;28;20418;-65
2021/04/20 02:18:43;;;;;;;23.77;10.03;;;4.50;74.80;;;;;;5012161;28;20049;-64
2021/04/20 02:21:10;;;;;;;21.60;9.70;;;4.40;74.80;;;;;;5012318;28;20041;-63
2021/04/20 02:23:36;;;;;;;17.73;8.80;;;4.40;75.00;;;;;;5012356;28;20415;-63
2021/04/20 02:26:06;;;;;;;20.93;9.17;;;4.30;75.00;;;;;;4994411;28;20521;-63
2021/04/20 02:28:33;;;;;;;21.03;10.17;;;4.30;75.10;;;;;;5011333;28;20034;-64
2021/04/20 02:31:04;;;;;;;20.07;9.53;;;4.30;75.20;;;;;;5012218;28;20289;-64
2021/04/20 02:33:31;;;;;;;20.43;10.27;;;4.20;75.30;;;;;;5011966;28;20061;-64
2021/04/20 02:35:58;;;;;;;18.90;9.67;;;4.20;75.60;;;;;;4994840;28;20025;-64
2021/04/20 02:38:25;;;;;;;19.87;10.57;;;4.20;75.90;;;;;;5011029;28;20042;-63
2021/04/20 02:40:56;;;;;;;18.10;9.73;;;4.20;76.10;;;;;;5012367;28;20127;-64
2021/04/20 02:43:22;;;;;;;;;;;4.20;76.30;;;;;;5012059;28;20054;-63
2021/04/20 02:45:50;;;;;;;20.00;9.37;;;4.10;76.30;;;;;;4994638;28;20370;-63
2021/04/20 02:48:16;;;;;;;16.93;9.23;;;4.10;76.20;;;;;;5014299;28;20121;-65
2021/04/20 02:50:43;;;;;;;16.30;8.87;;;4.10;76.50;;;;;;4995590;28;20077;-65
2021/04/20 02:53:10;;;;;;;19.00;9.57;;;4.10;76.60;;;;;;5012318;28;20042;-65
2021/04/20 02:55:36;;;;;;;20.57;10.33;;;4.10;76.80;;;;;;5011594;28;20045;-65
2021/04/20 02:58:03;;;;;;;21.27;10.13;;;4.00;76.80;;;;;;4993670;28;20038;-65
2021/04/20 03:00:31;;;;;;;22.20;10.10;;;4.00;77.40;;;;;;4994375;28;20038;-65
2021/04/20 03:03:00;;;;;;;22.80;10.67;;;4.00;77.10;;;;;;5011574;28;20101;-65
2021/04/20 03:05:28;;;;;;;22.23;11.23;;;3.90;77.20;;;;;;5011665;28;20046;-65
2021/04/20 03:07:58;;;;;;;20.27;10.00;;;3.90;77.40;;;;;;5010789;28;20041;-64
2021/04/20 03:10:26;;;;;;;23.38;10.95;;;3.90;77.40;;;;;;5011684;28;20042;-65
2021/04/20 03:12:52;;;;;;;19.67;10.47;;;3.80;77.40;;;;;;4994141;28;20177;-64
2021/04/20 03:15:18;;;;;;;18.30;9.83;;;3.80;77.50;;;;;;5011040;28;20517;-65
2021/04/20 03:17:46;;;;;;;18.13;9.87;;;3.70;77.50;;;;;;5010852;28;20061;-64
2021/04/20 03:20:13;;;;;;;19.13;9.23;;;3.70;77.60;;;;;;5011185;28;20350;-65
2021/04/20 03:22:42;;;;;;;22.10;10.47;;;3.60;77.70;;;;;;5011508;28;20038;-64
2021/04/20 03:25:11;;;;;;;19.13;9.70;;;3.60;77.90;;;;;;5011015;28;20049;-63
2021/04/20 03:27:44;;;;;;;20.17;9.37;;;3.60;78.20;;;;;;5010893;28;20037;-63
2021/04/20 03:30:13;;;;;;;21.67;10.53;;;3.50;78.10;;;;;;5011034;28;20041;-64
2021/04/20 03:32:44;;;;;;;22.10;10.97;;;3.50;78.10;;;;;;5011350;28;20046;-64
2021/04/20 03:35:16;;;;;;;21.00;10.70;;;3.50;78.20;;;;;;5011579;28;20052;-64
2021/04/20 03:38:14;;;;;;;20.50;10.03;;;3.40;78.20;;;;;;5010621;28;20378;-64
2021/04/20 03:40:47;;;;;;;24.60;11.07;;;3.40;78.40;;;;;;4997347;28;20049;-64
2021/04/20 03:43:15;;;;;;;24.83;10.20;;;3.40;78.40;;;;;;5011347;28;20042;-64
2021/04/20 03:45:56;;;;;;;21.87;10.20;;;3.40;78.40;;;;;;5010801;28;20049;-64
2021/04/20 03:48:28;;;;;;;;;;;3.40;78.60;;;;;;5011305;28;20177;-64
2021/04/20 03:50:59;;;;;;;21.10;11.03;;;3.40;79.10;;;;;;5010843;28;20333;-63
2021/04/20 03:53:27;;;;;;;23.33;11.67;;;3.30;78.50;;;;;;5011282;28;20066;-63
2021/04/20 03:55:54;;;;;;;21.83;11.03;;;3.30;78.80;;;;;;5010800;28;20047;-63
2021/04/20 03:58:22;;;;;;;23.23;11.40;;;3.30;79.00;;;;;;4993163;28;20038;-65
2021/04/20 04:00:55;;;;;;;20.53;11.23;;;3.30;79.10;;;;;;5010802;28;20065;-63
2021/04/20 04:03:25;;;;;;;23.23;10.87;;;3.30;79.10;;;;;;4977450;28;20141;-64
2021/04/20 04:05:52;;;;;;;21.17;10.83;;;3.30;79.40;;;;;;4992794;28;20451;-64
2021/04/20 04:08:19;;;;;;;20.83;11.03;;;3.30;79.50;;;;;;4992019;28;20041;-64
2021/04/20 04:10:50;;;;;;;19.10;10.13;;;3.30;79.60;;;;;;5010561;28;20037;-64
2021/04/20 04:13:17;;;;;;;24.97;12.17;;;3.20;79.60;;;;;;5010164;28;20120;-63
2021/04/20 04:15:42;;;;;;;21.03;11.47;;;3.20;79.80;;;;;;5011175;28;20053;-64
2021/04/20 04:18:12;;;;;;;19.07;10.50;;;3.20;79.90;;;;;;4992613;28;20089;-63
2021/04/20 04:20:37;;;;;;;22.20;11.50;;;3.20;80.00;;;;;;4993273;28;20117;-64
2021/04/20 04:23:08;;;;;;;19.63;11.07;;;3.20;80.00;;;;;;5010876;28;20133;-64
2021/04/20 04:25:41;;;;;;;18.50;10.83;;;3.20;80.30;;;;;;5010719;28;20132;-64
2021/04/20 04:28:09;;;;;;;22.93;11.57;;;3.30;80.60;;;;;;5010481;28;20037;-64
2021/04/20 04:30:35;;;;;;;20.97;11.23;;;3.20;80.70;;;;;;5010231;28;20038;-64
2021/04/20 04:33:01;;;;;;;21.60;11.67;;;3.30;80.80;;;;;;5010391;28;20068;-64
2021/04/20 04:35:33;;;;;;;20.83;11.43;;;3.30;80.90;;;;;;4993349;28;20121;-64
2021/04/20 04:38:00;;;;;;;19.90;10.77;;;3.30;81.00;;;;;;4992611;28;20125;-64
2021/04/20 04:40:27;;;;;;;19.43;10.93;;;3.30;81.20;;;;;;5010847;28;20041;-64
2021/04/20 04:42:52;;;;;;;20.40;10.90;;;3.40;81.30;;;;;;4992919;28;20038;-64
2021/04/20 04:45:19;;;;;;;18.57;10.47;;;3.40;81.30;;;;;;5010953;28;20044;-65
2021/04/20 04:47:44;;;;;;;21.20;10.60;;;3.50;81.40;;;;;;5010167;28;20061;-65
2021/04/20 04:50:11;;;;;;;20.77;11.03;;;3.50;81.40;;;;;;5010597;28;20033;-63
2021/04/20 04:52:39;;;;;;;20.00;10.20;;;3.60;81.60;;;;;;5014205;28;20030;-64
2021/04/20 04:55:06;;;;;;;18.13;10.00;;;3.60;81.60;;;;;;5013869;28;20054;-63
2021/04/20 04:57:34;;;;;;;19.17;9.40;;;3.60;81.70;;;;;;5013895;28;20113;-63
2021/04/20 05:00:04;;;;;;;18.13;10.30;;;3.70;81.90;;;;;;5013504;28;20034;-65
2021/04/20 05:02:30;;;;;;;15.65;9.38;;;3.90;82.20;;;;;;4996579;28;20041;-64
2021/04/20 05:04:56;;;;;;;16.40;9.70;;;4.00;82.40;;;;;;4996515;28;20038;-64
2021/04/20 05:07:23;;;;;;;15.80;9.03;;;4.20;82.80;;;;;;5013139;28;20084;-67
2021/04/20 05:09:50;;;;;;;17.50;9.23;;;4.40;83.50;;;;;;4980009;28;20122;-67
2021/04/20 05:12:20;;;;;;;18.43;8.77;;;4.70;85.00;;;;;;4995690;28;20044;-64
2021/04/20 05:14:46;;;;;;;20.35;8.25;;;5.30;87.10;;;;;;5014617;28;20509;-68
2021/04/20 05:17:13;;;;;;;16.20;8.40;;;6.10;88.50;;;;;;5016059;28;20033;-68
2021/04/20 05:19:41;;;;;;;16.90;7.67;;;6.90;89.20;;;;;;4995755;28;20069;-69
2021/04/20 05:22:07;;;;;;;15.23;7.33;;;7.70;88.70;;;;;;5013730;28;20081;-69
2021/04/20 05:24:33;;;;;;;14.43;7.43;;;8.40;87.80;;;;;;5013154;28;20065;-67
2021/04/20 05:26:59;;;;;;;14.03;7.43;;;9.10;87.10;;;;;;4995391;28;20090;-70
2021/04/20 05:29:25;;;;;;;14.47;6.77;;;9.80;86.60;;;;;;5013297;28;20453;-68
2021/04/20 05:31:51;;;;;;;13.75;6.45;;;10.40;85.40;;;;;;5012902;28;20122;-63
2021/04/20 05:34:21;;;;;;;14.27;6.82;;;10.90;83.30;;;;;;4979932;28;20042;-63
2021/04/20 05:36:48;;;;;;;11.80;6.43;;;11.40;82.00;;;;;;5011146;28;20137;-63
2021/04/20 05:39:15;;;;;;;15.15;6.50;;;11.80;80.50;;;;;;5010928;28;20465;-63
2021/04/20 05:41:42;;;;;;;11.07;6.05;;;12.20;79.30;;;;;;4994090;28;20508;-65
2021/04/20 05:44:11;;;;;;;13.15;6.70;;;12.80;78.40;;;;;;5011481;28;20037;-62
2021/04/20 05:46:38;;;;;;;12.55;6.03;;;13.40;77.60;;;;;;5012023;28;20059;-63
2021/04/20 05:49:05;;;;;;;11.80;5.25;;;13.90;75.40;;;;;;4993028;28;20313;-66
2021/04/20 05:51:32;;;;;;;12.27;5.95;;;14.40;73.90;;;;;;5011425;28;20034;-63
2021/04/20 05:53:58;;;;;;;9.75;5.35;;;14.80;72.40;;;;;;5010724;28;20026;-66
2021/04/20 05:56:24;;;;;;;12.10;5.70;;;15.40;70.70;;;;;;4993658;28;20819;-64
2021/04/20 05:58:56;;;;;;;11.88;5.40;;;15.80;68.10;;;;;;4992753;28;20122;-63
2021/04/20 06:01:23;;;;;;;11.57;5.50;;;16.20;66.20;;;;;;4993022;28;20573;-63
2021/04/20 06:03:50;;;;;;;10.95;4.70;;;16.60;64.80;;;;;;5010641;28;20041;-64
2021/04/20 06:06:19;;;;;;;13.35;5.10;;;17.10;63.70;;;;;;5011158;28;20081;-64
2021/04/20 06:08:46;;;;;;;10.90;5.30;;;17.60;62.70;;;;;;4992287;28;20038;-64
2021/04/20 06:11:12;;;;;;;9.77;5.00;;;18.10;60.70;;;;;;5010891;28;20486;-64
2021/04/20 06:13:39;;;;;;;9.90;5.28;;;18.60;58.90;;;;;;5010336;28;20049;-64
2021/04/20 06:16:06;;;;;;;8.95;4.45;;;19.20;56.90;;;;;;5010748;28;20029;-64
2021/04/20 06:18:33;;;;;;;10.75;5.00;;;19.70;55.10;;;;;;5009998;28;20504;-65
2021/04/20 06:21:01;;;;;;;9.93;5.00;;;20.10;53.60;;;;;;5009888;28;20053;-64
2021/04/20 06:23:28;;;;;;;8.70;4.25;;;20.60;51.60;;;;;;5010595;28;20056;-65
2021/04/20 06:25:58;;;;;;;9.15;4.63;;;21.00;50.50;;;;;;4992500;28;20435;-65
2021/04/20 06:28:25;;;;;;;9.25;4.68;;;21.30;48.70;;;;;;4993508;28;20132;-66
2021/04/20 06:30:55;;;;;;;10.55;4.13;;;21.70;48.10;;;;;;5011780;28;20040;-67
2021/04/20 06:33:22;;;;;;;8.38;4.10;;;22.20;46.70;;;;;;5012243;28;20042;-65
2021/04/20 06:35:48;;;;;;;9.18;3.85;;;22.50;44.70;;;;;;4994594;28;20045;-65
2021/04/20 06:38:16;;;;;;;10.90;4.32;;;22.70;43.50;;;;;;5010762;28;20053;-65
2021/04/20 06:40:53;;;;;;;9.82;4.20;;;23.00;42.60;;;;;;5011184;28;20120;-68
2021/04/20 06:43:32;;;;;;;7.88;3.70;;;23.50;41.60;;;;;;5010436;28;20517;-67
2021/04/20 06:46:03;;;;;;;10.63;4.88;;;24.00;40.50;;;;;;4993525;28;20041;-67
2021/04/20 06:48:54;;;;;;;8.73;3.78;;;24.50;38.70;;;;;;4992566;28;20149;-67
2021/04/20 06:51:28;;;;;;;7.50;3.58;;;24.60;37.80;;;;;;4993256;28;20041;-67
2021/04/20 06:54:04;;;;;;;7.95;3.80;;;24.90;37.30;;;;;;4993612;28;20387;-68
2021/04/20 06:56:33;;;;;;;8.02;3.97;;;25.50;36.70;;;;;;5010477;28;20034;-67
2021/04/20 06:59:11;;;;;;;7.57;3.55;;;26.10;35.70;;;;;;5010281;28;20033;-68
2021/04/20 07:01:51;;;;;;;8.20;3.42;;;26.70;34.90;;;;;;5010417;28;20042;-68
2021/04/20 07:04:33;;;;;;;7.50;3.10;;;27.40;34.10;;;;;;5010831;28;20509;-68
2021/04/20 07:07:37;;;;;;;7.53;3.35;;;27.90;32.90;;;;;;5010097;28;20513;-68
2021/04/20 07:10:12;;;;;;;6.13;2.83;;;28.30;30.80;;;;;;5010192;28;20098;-67
2021/04/20 07:12:41;;;;;;;8.93;3.00;;;28.30;30.70;;;;;;5012303;28;20390;-67
2021/04/20 07:15:11;;;;;;;8.27;3.33;;;28.40;30.40;;;;;;5010601;28;20069;-68
2021/04/20 07:17:36;;;;;;;8.85;3.40;;;28.80;30.00;;;;;;4992196;28;20308;-68
2021/04/20 07:20:33;;;;;;;7.22;2.97;;;29.10;29.30;;;;;;4992267;28;20400;-67
2021/04/20 07:23:26;;;;;;;8.20;3.10;;;29.30;28.90;;;;;;5008460;28;20033;-66
2021/04/20 07:26:23;;;;;;;8.20;2.95;;;29.60;28.90;;;;;;4992502;28;20487;-67
2021/04/20 07:29:07;;;;;;;6.47;3.20;;;30.30;28.60;;;;;;4991120;28;20041;-67
2021/04/20 07:31:56;;;;;;;6.18;2.90;;;30.90;27.70;;;;;;4983413;23;722332;-72
2021/04/20 07:34:54;;;;;;;7.35;3.20;;;31.20;27.20;;;;;;4989908;28;20061;-72
2021/04/20 07:37:48;;;;;;;7.28;2.90;;;31.80;26.70;;;;;;4969255;28;20517;-72
2021/04/20 07:40:25;;;;;;;7.07;3.08;;;32.30;26.60;;;;;;4990539;28;20512;-71
2021/04/20 07:43:01;;;;;;;7.07;2.80;;;32.80;25.80;;;;;;4969479;28;20111;-71
2021/04/20 07:45:33;;;;;;;6.35;2.97;;;33.00;25.50;;;;;;5010261;28;20053;-72
2021/04/20 07:48:09;;;;;;;8.32;3.10;;;33.50;25.00;;;;;;5010017;28;20034;-72
2021/04/20 07:50:43;;;;;;;6.47;2.80;;;33.60;24.80;;;;;;5010096;28;20556;-72
2021/04/20 07:53:16;;;;;;;6.53;2.70;;;33.90;24.80;;;;;;5010949;28;20117;-72
2021/04/20 07:55:58;;;;;;;6.80;2.65;;;34.10;24.20;;;;;;5010248;28;20049;-72
2021/04/20 07:58:29;;;;;;;7.65;2.97;;;34.50;24.00;;;;;;5019166;28;20038;-72
2021/04/20 08:01:04;;;;;;;7.25;3.05;;;35.00;23.90;;;;;;5014518;28;20049;-71
2021/04/20 08:03:48;;;;;;;7.45;2.70;;;35.10;23.20;;;;;;5012222;28;20041;-71
2021/04/20 08:06:20;;;;;;;8.50;3.10;;;35.00;22.90;;;;;;5029801;28;20041;-73
2021/04/20 08:08:50;;;;;;;7.15;2.88;;;35.10;23.00;;;;;;5029358;28;20033;-72
2021/04/20 08:11:40;;;;;;;7.78;2.90;;;35.50;22.60;;;;;;5012065;28;20043;-72
2021/04/20 08:14:25;;;;;;;5.57;2.38;;;35.60;22.70;;;;;;5029547;28;20497;-72
2021/04/20 08:17:13;;;;;;;7.13;2.70;;;36.10;22.30;;;;;;5013813;28;20292;-72
2021/04/20 08:19:51;;;;;;;7.03;2.60;;;36.30;22.00;;;;;;5027949;28;20036;-72
2021/04/20 08:22:19;;;;;;;6.75;2.80;;;36.30;22.00;;;;;;5029662;28;20029;-71
2021/04/20 08:25:04;;;;;;;5.95;2.60;;;36.70;21.90;;;;;;5029156;28;20037;-72
2021/04/20 08:27:49;;;;;;;5.93;2.47;;;37.40;21.60;;;;;;4979558;28;20483;-72
2021/04/20 08:30:26;;;;;;;5.03;2.22;;;37.70;20.90;;;;;;5033599;28;20420;-73
2021/04/20 08:32:53;;;;;;;6.65;2.40;;;37.50;21.00;;;;;;5033199;28;20562;-72
2021/04/20 08:35:28;;;;;;;8.15;2.65;;;37.50;20.50;;;;;;4996372;28;20046;-71
2021/04/20 08:38:20;;;;;;;7.57;2.20;;;37.70;21.10;;;;;;4996587;28;20044;-71
2021/04/20 08:41:01;;;;;;;6.22;2.55;;;38.20;20.90;;;;;;5015767;28;20041;-72
2021/04/20 08:43:41;;;;;;;6.35;2.40;;;38.70;20.70;;;;;;5033121;28;20037;-71
2021/04/20 08:46:35;;;;;;;5.45;2.13;;;39.20;20.40;;;;;;5015408;28;20421;-72
2021/04/20 08:49:05;;;;;;;6.35;2.35;;;39.80;20.20;;;;;;5029299;28;20033;-71
2021/04/20 08:51:35;;;;;;;6.70;2.65;;;40.00;20.00;;;;;;5030878;28;20547;-72
2021/04/20 08:54:27;;;;;;;6.97;2.17;;;40.30;19.90;;;;;;5033071;28;20042;-72
2021/04/20 08:57:23;;;;;;;6.82;2.38;;;40.80;19.80;;;;;;5002006;28;20056;-73
2021/04/20 09:00:14;;;;;;;7.05;2.08;;;41.30;19.60;;;;;;4998632;28;20108;-73
2021/04/20 09:03:01;;;;;;;5.20;2.28;;;41.40;19.20;;;;;;4999870;28;20037;-69
2021/04/20 09:05:40;;;;;;;8.23;2.50;;;41.10;19.00;;;;;;5014629;28;20053;-72
2021/04/20 09:08:28;;;;;;;8.90;2.40;;;40.90;18.90;;;;;;5030414;28;20057;-73
2021/04/20 09:10:57;;;;;;;4.93;2.20;;;40.80;18.90;;;;;;5010414;28;20048;-73
2021/04/20 09:13:26;;;;;;;6.00;2.30;;;40.90;18.60;;;;;;5032353;28;20029;-73
2021/04/20 09:16:00;;;;;;;6.10;2.60;;;40.70;18.30;;;;;;5032265;28;20064;-71
2021/04/20 09:18:35;;;;;;;5.03;2.00;;;40.50;18.50;;;;;;5029518;28;20052;-70
2021/04/20 09:21:12;;;;;;;6.43;2.47;;;40.50;18.40;;;;;;5032108;28;20037;-71
2021/04/20 09:23:44;;;;;;;5.22;2.25;;;40.50;18.60;;;;;;5029088;28;20048;-70
2021/04/20 09:26:30;;;;;;;8.48;2.10;;;40.20;18.30;;;;;;5032166;28;20040;-71
2021/04/20 09:29:19;;;;;;;7.53;2.40;;;40.20;18.60;;;;;;5028689;28;20045;-69
2021/04/20 09:32:13;;;;;;;5.85;2.10;;;40.80;18.80;;;;;;4983866;28;20041;-72
2021/04/20 09:34:42;;;;;;;5.75;1.98;;;41.80;18.90;;;;;;5020139;28;20521;-73
2021/04/20 09:37:09;;;;;;;7.88;2.38;;;42.30;18.50;;;;;;4993964;28;20045;-73
2021/04/20 09:39:39;;;;;;;6.55;2.20;;;42.30;18.40;;;;;;5031954;28;20036;-74
2021/04/20 09:42:07;;;;;;;6.40;2.15;;;43.00;18.50;;;;;;5031174;28;20038;-73
2021/04/20 09:44:49;;;;;;;5.47;2.05;;;43.40;18.20;;;;;;5014079;28;20407;-72
2021/04/20 09:47:22;;;;;;;6.13;2.00;;;43.70;18.10;;;;;;5012978;28;20114;-72
2021/04/20 09:50:10;;;;;;;5.50;2.20;;;43.90;17.70;;;;;;5030139;28;20029;-72
2021/04/20 09:53:02;;;;;;;7.57;2.28;;;43.90;17.60;;;;;;5031675;28;20485;-73
2021/04/20 09:55:40;;;;;;;5.82;2.10;;;44.00;17.70;;;;;;4998726;28;20040;-71
2021/04/20 09:58:08;;;;;;;5.88;2.10;;;44.10;17.50;;;;;;5031686;28;20378;-72
2021/04/20 10:00:34;;;;;;;6.60;1.98;;;44.10;17.20;;;;;;5031701;28;20037;-71
2021/04/20 10:03:28;;;;;;;5.07;2.10;;;43.90;17.10;;;;;;5013720;28;20064;-71
2021/04/20 10:06:37;;;;;;;6.03;2.08;;;44.20;17.30;;;;;;5031453;28;20125;-73
2021/04/20 10:09:15;;;;;;;5.93;2.10;;;44.40;17.20;;;;;;5002149;28;20041;-73
2021/04/20 10:12:09;;;;;;;5.90;1.92;;;44.40;16.50;;;;;;5031466;28;20048;-72
2021/04/20 10:14:47;;;;;;;6.55;2.40;;;43.70;16.30;;;;;;5013854;28;20037;-72
2021/04/20 10:17:29;;;;;;;4.90;1.98;;;43.10;16.30;;;;;;5030801;28;20051;-71
2021/04/20 10:20:02;;;;;;;4.95;2.00;;;42.60;16.40;;;;;;5031116;28;20087;-73
2021/04/20 10:22:35;;;;;;;6.22;2.10;;;42.70;16.80;;;;;;5029735;28;20416;-72
2021/04/20 10:25:33;;;;;;;4.30;1.80;;;43.50;17.00;;;;;;5030607;28;20485;-73
2021/04/20 10:28:37;;;;;;;4.38;2.00;;;43.90;16.60;;;;;;5012291;28;20041;-73
2021/04/20 10:31:18;;;;;;;5.88;2.25;;;43.90;16.60;;;;;;5025199;28;20034;-71
2021/04/20 10:33:48;;;;;;;4.63;2.00;;;43.90;16.50;;;;;;5030104;28;20029;-71
2021/04/20 10:36:15;;;;;;;4.72;2.08;;;44.00;16.20;;;;;;5012925;28;20466;-72
2021/04/20 10:38:41;;;;;;;7.68;2.17;;;43.50;15.90;;;;;;5011439;28;20040;-72
2021/04/20 10:41:40;;;;;;;5.97;2.10;;;43.20;16.00;;;;;;5027472;28;20036;-74
2021/04/20 10:44:10;;;;;;;;;;;43.20;16.10;;;;;;4969626;28;20085;-72
2021/04/20 10:46:37;;;;;;;4.70;1.98;;;43.50;16.20;;;;;;5012498;28;19913;-70
2021/04/20 10:49:04;;;;;;;4.72;1.70;;;43.80;15.80;;;;;;5011844;28;20041;-69
2021/04/20 10:51:32;;;;;;;4.85;2.08;;;43.40;15.70;;;;;;5030676;28;20087;-71
2021/04/20 10:53:59;;;;;;;4.03;1.80;;;43.40;15.50;;;;;;5030248;28;20187;-70
2021/04/20 10:56:27;;;;;;;5.28;1.67;;;43.20;15.50;;;;;;5030746;28;20045;-71
2021/04/20 10:58:56;;;;;;;5.47;1.85;;;42.80;15.60;;;;;;5030456;28;20087;-72
2021/04/20 11:01:29;;;;;;;4.32;1.70;;;42.90;15.90;;;;;;5030464;28;20060;-72
2021/04/20 11:03:59;;;;;;;4.35;2.08;;;43.10;15.80;;;;;;5031528;28;20391;-73
2021/04/20 11:07:02;;;;;;;4.15;1.83;;;42.60;15.60;;;;;;4997338;28;20520;-72
2021/04/20 11:09:30;;;;;;;4.95;1.90;;;42.70;15.90;;;;;;5030888;28;20497;-72
2021/04/20 11:11:56;;;;;;;4.90;2.00;;;43.30;15.40;;;;;;4997609;28;20522;-72
2021/04/20 11:14:37;;;;;;;5.15;1.77;;;43.10;15.50;;;;;;5030793;28;20532;-72
2021/04/20 11:17:03;;;;;;;4.97;1.90;;;43.70;15.60;;;;;;4996974;28;20484;-72
2021/04/20 11:19:32;;;;;;;5.80;1.98;;;43.80;15.40;;;;;;5013264;28;20101;-73
2021/04/20 11:22:00;;;;;;;4.10;1.83;;;43.90;15.30;;;;;;5013489;28;20030;-71
2021/04/20 11:24:28;;;;;;;5.57;1.80;;;43.40;15.30;;;;;;5030865;28;20057;-73
2021/04/20 11:27:04;;;;;;;5.50;1.80;;;43.20;15.60;;;;;;5031071;28;20037;-72
2021/04/20 11:30:01;;;;;;;5.55;1.83;;;43.10;15.60;;;;;;5034955;28;20090;-71
2021/04/20 11:32:29;;;;;;;4.90;1.70;;;42.90;15.80;;;;;;5017735;28;20042;-72
2021/04/20 11:35:01;;;;;;;4.30;1.80;;;42.30;15.70;;;;;;5013202;28;20080;-73
2021/04/20 11:37:29;;;;;;;5.03;2.05;;;42.20;15.70;;;;;;5030522;28;20033;-72
2021/04/20 11:40:10;;;;;;;4.78;1.75;;;42.20;15.80;;;;;;5030661;28;20033;-72
2021/04/20 11:42:46;;;;;;;5.30;1.70;;;42.50;15.80;;;;;;5030096;28;20405;-72
2021/04/20 11:45:23;;;;;;;5.03;1.80;;;42.90;15.80;;;;;;5010493;28;20033;-72
2021/04/20 11:47:57;;;;;;;3.78;1.75;;;43.10;15.80;;;;;;5010657;28;20442;-72
2021/04/20 11:50:26;;;;;;;5.65;2.60;;;43.40;15.60;;;;;;5027799;28;20041;-72
2021/04/20 11:53:19;;;;;;;4.25;1.65;;;43.50;15.50;;;;;;5029971;28;20033;-73
2021/04/20 11:55:47;;;;;;;6.03;1.67;;;43.90;15.90;;;;;;5025644;28;20520;-73
2021/04/20 11:58:30;;;;;;;5.28;1.80;;;44.10;15.80;;;;;;5011293;28;20036;-73
2021/04/20 12:01:00;;;;;;;6.22;1.80;;;44.00;15.70;;;;;;5012465;28;20096;-76
2021/04/20 12:03:29;;;;;;;4.50;1.60;;;43.60;15.40;;;;;;5033233;28;20533;-76
2021/04/20 12:05:57;;;;;;;4.13;1.85;;;42.50;15.20;;;;;;5032776;28;20508;-73
2021/04/20 12:08:44;;;;;;;6.63;2.03;;;41.10;15.20;;;;;;5032998;28;20037;-72
2021/04/20 12:11:11;;;;;;;5.07;2.00;;;39.70;15.30;;;;;;5015188;28;20034;-73
2021/04/20 12:13:40;;;;;;;4.22;1.73;;;38.80;15.60;;;;;;5032827;28;20046;-73
2021/04/20 12:16:09;;;;;;;4.50;1.85;;;37.80;15.50;;;;;;5033711;28;20053;-73
2021/04/20 12:18:36;;;;;;;6.07;1.70;;;36.70;15.70;;;;;;4999775;28;20033;-74
2021/04/20 12:21:09;;;;;;;5.75;2.00;;;35.70;15.90;;;;;;5033714;28;20048;-73
2021/04/20 12:23:38;;;;;;;5.97;1.90;;;34.80;16.20;;;;;;5015627;28;20041;-74
2021/04/20 12:26:06;;;;;;;5.05;1.92;;;34.20;16.60;;;;;;5034007;28;20040;-73
2021/04/20 12:28:35;;;;;;;7.20;2.15;;;33.50;16.30;;;;;;5015878;28;20037;-72
2021/04/20 12:31:01;;;;;;;5.85;1.90;;;32.70;16.60;;;;;;5033572;28;20115;-74
2021/04/20 12:33:31;;;;;;;5.30;2.00;;;32.60;17.00;;;;;;5015960;28;20096;-73
2021/04/20 12:35:59;;;;;;;5.47;1.88;;;32.90;17.20;;;;;;5034091;28;20038;-71
2021/04/20 12:38:30;;;;;;;5.18;1.83;;;33.10;17.30;;;;;;4999728;28;20476;-71
2021/04/20 12:41:02;;;;;;;5.80;2.30;;;33.10;17.00;;;;;;5033566;28;20037;-73
2021/04/20 12:43:32;;;;;;;5.40;2.13;;;33.10;17.20;;;;;;5016124;28;20513;-72
2021/04/20 12:46:08;;;;;;;5.00;1.80;;;33.10;16.90;;;;;;5033168;28;20109;-72
2021/04/20 12:48:37;;;;;;;5.68;1.80;;;33.10;17.20;;;;;;5033427;28;20037;-72
2021/04/20 12:51:05;;;;;;;6.00;1.88;;;33.40;18.10;;;;;;4999083;28;20046;-72
2021/04/20 12:53:33;;;;;;;6.93;2.20;;;33.40;17.60;;;;;;5033042;28;20073;-71
2021/04/20 12:56:00;;;;;;;4.90;2.03;;;33.20;17.50;;;;;;5015071;28;20557;-72
2021/04/20 12:58:32;;;;;;;6.50;1.85;;;32.50;17.20;;;;;;5032061;28;20036;-71
2021/04/20 13:01:04;;;;;;;4.25;1.90;;;31.30;17.20;;;;;;5032642;28;20498;-70
2021/04/20 13:03:32;;;;;;;6.72;1.95;;;30.50;17.60;;;;;;5032779;28;20042;-71
2021/04/20 13:06:06;;;;;;;6.60;1.83;;;30.10;17.90;;;;;;4998764;28;20033;-71
2021/04/20 13:08:33;;;;;;;7.18;1.98;;;29.80;18.20;;;;;;4999025;28;20547;-73
2021/04/20 13:10:59;;;;;;;5.18;1.90;;;29.70;18.60;;;;;;5032013;28;20111;-72